Weather at Renmark Airport

Public forecast

Using degrees Celsius for public forecast. Weather courtesy of forecast.io.

Closest aviation weather report (METAR) to Renmark Airport

Closest report is Mildura Airport, 70.1 nm (129.9 km) E. Retrieved 2020/10/30 13:00 UTC (21 minutes ago):

YMIA 301300Z AUTO 19013KT 9999 // SCT071 SCT082 OVC105 17/11 Q1010

Closest aviation forecast (TAF) to Renmark Airport

Closest forecast is Adelaide International Airport, 115.1 nm (213.1 km) WSW. Retrieved 2020/10/30 12:00 UTC (1 hour ago):

TAF YPAD 301106Z 3012/3118 18013KT 9999 SCT015 BKN025 FM302300 17013KT 9999 SCT030 FM311000 13008KT CAVOK